sensor_id;sensor_type;location;lat;lon;timestamp;P1;durP1;ratioP1;P2;durP2;ratioP2
5493;SDS011;2769;49.864;8.656;2023-08-06T00:00:42;8.50;;;4.83;;
5493;SDS011;2769;49.864;8.656;2023-08-06T00:03:10;6.50;;;4.10;;
5493;SDS011;2769;49.864;8.656;2023-08-06T00:05:42;5.13;;;4.40;;
5493;SDS011;2769;49.864;8.656;2023-08-06T00:08:10;3.93;;;3.73;;
5493;SDS011;2769;49.864;8.656;2023-08-06T00:10:39;5.73;;;4.20;;
5493;SDS011;2769;49.864;8.656;2023-08-06T00:13:07;5.60;;;4.27;;
5493;SDS011;2769;49.864;8.656;2023-08-06T00:15:35;4.57;;;4.23;;
5493;SDS011;2769;49.864;8.656;2023-08-06T00:18:03;7.87;;;4.50;;
5493;SDS011;2769;49.864;8.656;2023-08-06T00:20:31;6.67;;;4.40;;
5493;SDS011;2769;49.864;8.656;2023-08-06T00:23:00;4.57;;;4.10;;
5493;SDS011;2769;49.864;8.656;2023-08-06T00:25:28;4.70;;;4.07;;
5493;SDS011;2769;49.864;8.656;2023-08-06T00:27:56;4.00;;;3.80;;
5493;SDS011;2769;49.864;8.656;2023-08-06T00:30:24;4.53;;;3.67;;
5493;SDS011;2769;49.864;8.656;2023-08-06T00:32:53;4.27;;;3.93;;
5493;SDS011;2769;49.864;8.656;2023-08-06T00:35:21;8.33;;;4.00;;
5493;SDS011;2769;49.864;8.656;2023-08-06T00:37:49;5.63;;;4.03;;
5493;SDS011;2769;49.864;8.656;2023-08-06T00:40:21;5.33;;;4.17;;
5493;SDS011;2769;49.864;8.656;2023-08-06T00:42:49;4.83;;;3.83;;
5493;SDS011;2769;49.864;8.656;2023-08-06T00:45:17;4.03;;;3.73;;
5493;SDS011;2769;49.864;8.656;2023-08-06T00:47:45;3.80;;;3.60;;
5493;SDS011;2769;49.864;8.656;2023-08-06T00:50:15;4.07;;;3.77;;
5493;SDS011;2769;49.864;8.656;2023-08-06T00:52:44;4.47;;;4.07;;
5493;SDS011;2769;49.864;8.656;2023-08-06T00:55:12;6.67;;;4.30;;
5493;SDS011;2769;49.864;8.656;2023-08-06T00:57:41;6.90;;;3.93;;
5493;SDS011;2769;49.864;8.656;2023-08-06T01:00:09;6.20;;;4.20;;
5493;SDS011;2769;49.864;8.656;2023-08-06T01:02:38;6.30;;;3.73;;
5493;SDS011;2769;49.864;8.656;2023-08-06T01:05:07;7.57;;;4.00;;
5493;SDS011;2769;49.864;8.656;2023-08-06T01:07:37;13.67;;;3.77;;
5493;SDS011;2769;49.864;8.656;2023-08-06T01:10:15;6.57;;;3.73;;
5493;SDS011;2769;49.864;8.656;2023-08-06T01:12:56;3.90;;;3.60;;
5493;SDS011;2769;49.864;8.656;2023-08-06T01:15:32;4.47;;;3.87;;
5493;SDS011;2769;49.864;8.656;2023-08-06T01:18:03;5.23;;;3.83;;
5493;SDS011;2769;49.864;8.656;2023-08-06T01:20:33;4.00;;;3.30;;
5493;SDS011;2769;49.864;8.656;2023-08-06T01:23:01;4.87;;;3.40;;
5493;SDS011;2769;49.864;8.656;2023-08-06T01:25:31;5.07;;;3.27;;
5493;SDS011;2769;49.864;8.656;2023-08-06T01:28:03;3.57;;;3.27;;
5493;SDS011;2769;49.864;8.656;2023-08-06T01:30:33;14.20;;;3.07;;
5493;SDS011;2769;49.864;8.656;2023-08-06T01:33:04;4.17;;;2.63;;
5493;SDS011;2769;49.864;8.656;2023-08-06T01:35:34;3.33;;;3.00;;
5493;SDS011;2769;49.864;8.656;2023-08-06T01:38:03;4.33;;;2.30;;
5493;SDS011;2769;49.864;8.656;2023-08-06T01:40:31;6.10;;;2.70;;
5493;SDS011;2769;49.864;8.656;2023-08-06T01:42:59;3.20;;;2.90;;
5493;SDS011;2769;49.864;8.656;2023-08-06T01:45:27;4.00;;;2.90;;
5493;SDS011;2769;49.864;8.656;2023-08-06T01:47:55;2.87;;;2.67;;
5493;SDS011;2769;49.864;8.656;2023-08-06T01:50:23;2.97;;;2.77;;
5493;SDS011;2769;49.864;8.656;2023-08-06T01:52:52;3.00;;;2.70;;
5493;SDS011;2769;49.864;8.656;2023-08-06T01:55:20;3.20;;;2.73;;
5493;SDS011;2769;49.864;8.656;2023-08-06T01:57:48;3.07;;;2.47;;
5493;SDS011;2769;49.864;8.656;2023-08-06T02:00:16;2.63;;;2.43;;
5493;SDS011;2769;49.864;8.656;2023-08-06T02:02:46;2.30;;;2.20;;
5493;SDS011;2769;49.864;8.656;2023-08-06T02:05:14;2.90;;;2.43;;
5493;SDS011;2769;49.864;8.656;2023-08-06T02:07:42;4.40;;;2.70;;
5493;SDS011;2769;49.864;8.656;2023-08-06T02:10:11;2.60;;;2.40;;
5493;SDS011;2769;49.864;8.656;2023-08-06T02:12:39;5.90;;;2.63;;
5493;SDS011;2769;49.864;8.656;2023-08-06T02:15:07;2.30;;;2.10;;
5493;SDS011;2769;49.864;8.656;2023-08-06T02:17:36;5.53;;;2.33;;
5493;SDS011;2769;49.864;8.656;2023-08-06T02:20:05;3.00;;;2.70;;
5493;SDS011;2769;49.864;8.656;2023-08-06T02:22:34;5.30;;;2.60;;
5493;SDS011;2769;49.864;8.656;2023-08-06T02:25:02;2.73;;;2.53;;
5493;SDS011;2769;49.864;8.656;2023-08-06T02:27:31;2.40;;;2.20;;
5493;SDS011;2769;49.864;8.656;2023-08-06T02:29:59;4.10;;;2.60;;
5493;SDS011;2769;49.864;8.656;2023-08-06T02:32:27;2.97;;;2.77;;
5493;SDS011;2769;49.864;8.656;2023-08-06T02:34:58;2.80;;;2.33;;
5493;SDS011;2769;49.864;8.656;2023-08-06T02:37:26;2.60;;;2.37;;
5493;SDS011;2769;49.864;8.656;2023-08-06T02:39:54;2.60;;;2.40;;
5493;SDS011;2769;49.864;8.656;2023-08-06T02:42:22;5.40;;;2.10;;
5493;SDS011;2769;49.864;8.656;2023-08-06T02:44:51;5.27;;;2.27;;
5493;SDS011;2769;49.864;8.656;2023-08-06T02:47:21;2.53;;;2.40;;
5493;SDS011;2769;49.864;8.656;2023-08-06T02:49:51;2.63;;;2.43;;
5493;SDS011;2769;49.864;8.656;2023-08-06T02:52:19;3.27;;;2.70;;
5493;SDS011;2769;49.864;8.656;2023-08-06T02:54:47;4.60;;;2.23;;
5493;SDS011;2769;49.864;8.656;2023-08-06T02:57:15;3.07;;;2.27;;
5493;SDS011;2769;49.864;8.656;2023-08-06T02:59:44;4.77;;;2.60;;
5493;SDS011;2769;49.864;8.656;2023-08-06T03:02:17;4.50;;;2.40;;
5493;SDS011;2769;49.864;8.656;2023-08-06T03:04:56;4.37;;;2.53;;
5493;SDS011;2769;49.864;8.656;2023-08-06T03:07:30;2.80;;;2.60;;
5493;SDS011;2769;49.864;8.656;2023-08-06T03:10:06;2.70;;;2.50;;
5493;SDS011;2769;49.864;8.656;2023-08-06T03:12:35;9.00;;;2.63;;
5493;SDS011;2769;49.864;8.656;2023-08-06T03:15:04;2.50;;;2.30;;
5493;SDS011;2769;49.864;8.656;2023-08-06T03:17:34;2.67;;;2.50;;
5493;SDS011;2769;49.864;8.656;2023-08-06T03:20:04;4.23;;;2.80;;
5493;SDS011;2769;49.864;8.656;2023-08-06T03:22:34;2.80;;;2.37;;
5493;SDS011;2769;49.864;8.656;2023-08-06T03:25:02;2.73;;;2.53;;
5493;SDS011;2769;49.864;8.656;2023-08-06T03:27:33;2.33;;;2.20;;
5493;SDS011;2769;49.864;8.656;2023-08-06T03:30:01;8.30;;;2.70;;
5493;SDS011;2769;49.864;8.656;2023-08-06T03:32:30;4.40;;;3.07;;
5493;SDS011;2769;49.864;8.656;2023-08-06T03:35:00;6.47;;;2.87;;
5493;SDS011;2769;49.864;8.656;2023-08-06T03:37:29;3.13;;;2.30;;
5493;SDS011;2769;49.864;8.656;2023-08-06T03:39:57;2.70;;;2.40;;
5493;SDS011;2769;49.864;8.656;2023-08-06T03:42:25;3.83;;;2.37;;
5493;SDS011;2769;49.864;8.656;2023-08-06T03:44:53;3.00;;;2.80;;
5493;SDS011;2769;49.864;8.656;2023-08-06T03:47:21;3.23;;;2.40;;
5493;SDS011;2769;49.864;8.656;2023-08-06T03:49:51;4.70;;;2.70;;
5493;SDS011;2769;49.864;8.656;2023-08-06T03:52:22;3.70;;;2.90;;
5493;SDS011;2769;49.864;8.656;2023-08-06T03:54:50;4.03;;;2.80;;
5493;SDS011;2769;49.864;8.656;2023-08-06T03:57:18;9.53;;;2.53;;
5493;SDS011;2769;49.864;8.656;2023-08-06T03:59:46;2.57;;;2.40;;
5493;SDS011;2769;49.864;8.656;2023-08-06T04:02:22;7.17;;;2.50;;
5493;SDS011;2769;49.864;8.656;2023-08-06T04:04:50;4.23;;;2.80;;
5493;SDS011;2769;49.864;8.656;2023-08-06T04:07:20;5.40;;;2.80;;
5493;SDS011;2769;49.864;8.656;2023-08-06T04:09:58;3.30;;;2.93;;
5493;SDS011;2769;49.864;8.656;2023-08-06T04:12:27;3.00;;;2.80;;
5493;SDS011;2769;49.864;8.656;2023-08-06T04:14:56;3.13;;;2.93;;
5493;SDS011;2769;49.864;8.656;2023-08-06T04:17:25;3.93;;;3.30;;
5493;SDS011;2769;49.864;8.656;2023-08-06T04:19:54;4.43;;;3.40;;
5493;SDS011;2769;49.864;8.656;2023-08-06T04:22:24;4.03;;;3.73;;
5493;SDS011;2769;49.864;8.656;2023-08-06T04:24:52;4.27;;;3.83;;
5493;SDS011;2769;49.864;8.656;2023-08-06T04:27:21;3.90;;;3.30;;
5493;SDS011;2769;49.864;8.656;2023-08-06T04:29:50;8.00;;;4.10;;
5493;SDS011;2769;49.864;8.656;2023-08-06T04:32:18;8.70;;;4.33;;
5493;SDS011;2769;49.864;8.656;2023-08-06T04:34:55;4.57;;;4.10;;
5493;SDS011;2769;49.864;8.656;2023-08-06T04:37:24;6.10;;;4.00;;
5493;SDS011;2769;49.864;8.656;2023-08-06T04:39:52;12.63;;;4.13;;
5493;SDS011;2769;49.864;8.656;2023-08-06T04:42:21;3.93;;;3.63;;
5493;SDS011;2769;49.864;8.656;2023-08-06T04:44:49;8.20;;;3.83;;
5493;SDS011;2769;49.864;8.656;2023-08-06T04:47:17;4.40;;;4.00;;
5493;SDS011;2769;49.864;8.656;2023-08-06T04:49:45;3.80;;;3.33;;
5493;SDS011;2769;49.864;8.656;2023-08-06T04:52:14;4.37;;;3.23;;
5493;SDS011;2769;49.864;8.656;2023-08-06T04:54:43;8.03;;;3.10;;
5493;SDS011;2769;49.864;8.656;2023-08-06T04:57:11;2.93;;;2.73;;
5493;SDS011;2769;49.864;8.656;2023-08-06T04:59:40;4.60;;;2.87;;
5493;SDS011;2769;49.864;8.656;2023-08-06T05:02:10;3.80;;;3.03;;
5493;SDS011;2769;49.864;8.656;2023-08-06T05:04:38;2.80;;;2.57;;
5493;SDS011;2769;49.864;8.656;2023-08-06T05:07:06;3.10;;;2.90;;
5493;SDS011;2769;49.864;8.656;2023-08-06T05:09:34;3.10;;;2.90;;
5493;SDS011;2769;49.864;8.656;2023-08-06T05:12:03;3.47;;;2.60;;
5493;SDS011;2769;49.864;8.656;2023-08-06T05:14:32;8.07;;;2.97;;
5493;SDS011;2769;49.864;8.656;2023-08-06T05:17:01;3.00;;;2.70;;
5493;SDS011;2769;49.864;8.656;2023-08-06T05:19:31;4.13;;;3.00;;
5493;SDS011;2769;49.864;8.656;2023-08-06T05:21:59;3.07;;;2.50;;
5493;SDS011;2769;49.864;8.656;2023-08-06T05:24:27;6.73;;;2.80;;
5493;SDS011;2769;49.864;8.656;2023-08-06T05:26:55;3.43;;;2.17;;
5493;SDS011;2769;49.864;8.656;2023-08-06T05:29:23;4.57;;;2.60;;
5493;SDS011;2769;49.864;8.656;2023-08-06T05:31:51;2.53;;;2.13;;
5493;SDS011;2769;49.864;8.656;2023-08-06T05:34:20;3.40;;;2.60;;
5493;SDS011;2769;49.864;8.656;2023-08-06T05:36:48;3.00;;;2.30;;
5493;SDS011;2769;49.864;8.656;2023-08-06T05:39:16;4.97;;;2.40;;
5493;SDS011;2769;49.864;8.656;2023-08-06T05:41:44;5.20;;;3.17;;
5493;SDS011;2769;49.864;8.656;2023-08-06T05:44:12;2.93;;;2.70;;
5493;SDS011;2769;49.864;8.656;2023-08-06T05:46:40;3.03;;;2.60;;
5493;SDS011;2769;49.864;8.656;2023-08-06T05:49:08;3.80;;;2.93;;
5493;SDS011;2769;49.864;8.656;2023-08-06T05:51:37;9.20;;;2.90;;
5493;SDS011;2769;49.864;8.656;2023-08-06T05:54:05;8.47;;;2.70;;
5493;SDS011;2769;49.864;8.656;2023-08-06T05:56:33;4.20;;;2.77;;
5493;SDS011;2769;49.864;8.656;2023-08-06T05:59:01;3.83;;;2.50;;
5493;SDS011;2769;49.864;8.656;2023-08-06T06:01:29;2.80;;;2.60;;
5493;SDS011;2769;49.864;8.656;2023-08-06T06:03:57;6.13;;;2.63;;
5493;SDS011;2769;49.864;8.656;2023-08-06T06:06:25;4.57;;;2.33;;
5493;SDS011;2769;49.864;8.656;2023-08-06T06:08:54;6.70;;;3.43;;
5493;SDS011;2769;49.864;8.656;2023-08-06T06:11:23;3.20;;;2.87;;
5493;SDS011;2769;49.864;8.656;2023-08-06T06:13:51;2.80;;;2.60;;
5493;SDS011;2769;49.864;8.656;2023-08-06T06:16:19;3.40;;;2.70;;
5493;SDS011;2769;49.864;8.656;2023-08-06T06:18:50;3.07;;;2.30;;
5493;SDS011;2769;49.864;8.656;2023-08-06T06:21:18;3.97;;;2.50;;
5493;SDS011;2769;49.864;8.656;2023-08-06T06:23:46;3.70;;;2.23;;
5493;SDS011;2769;49.864;8.656;2023-08-06T06:26:15;4.53;;;2.10;;
5493;SDS011;2769;49.864;8.656;2023-08-06T06:28:43;4.53;;;2.33;;
5493;SDS011;2769;49.864;8.656;2023-08-06T06:31:11;4.07;;;1.90;;
5493;SDS011;2769;49.864;8.656;2023-08-06T06:33:39;2.40;;;1.80;;
5493;SDS011;2769;49.864;8.656;2023-08-06T06:36:07;4.23;;;1.93;;
5493;SDS011;2769;49.864;8.656;2023-08-06T06:38:36;2.37;;;2.00;;
5493;SDS011;2769;49.864;8.656;2023-08-06T06:41:04;1.80;;;1.70;;
5493;SDS011;2769;49.864;8.656;2023-08-06T06:43:34;2.50;;;1.77;;
5493;SDS011;2769;49.864;8.656;2023-08-06T06:46:02;1.73;;;1.50;;
5493;SDS011;2769;49.864;8.656;2023-08-06T06:48:31;2.13;;;1.87;;
5493;SDS011;2769;49.864;8.656;2023-08-06T06:50:59;2.10;;;1.90;;
5493;SDS011;2769;49.864;8.656;2023-08-06T06:53:27;3.13;;;1.80;;
5493;SDS011;2769;49.864;8.656;2023-08-06T06:55:55;4.33;;;1.57;;
5493;SDS011;2769;49.864;8.656;2023-08-06T06:58:24;4.20;;;1.43;;
5493;SDS011;2769;49.864;8.656;2023-08-06T07:00:53;2.10;;;1.67;;
5493;SDS011;2769;49.864;8.656;2023-08-06T07:03:21;1.87;;;1.73;;
5493;SDS011;2769;49.864;8.656;2023-08-06T07:05:49;2.13;;;1.70;;
5493;SDS011;2769;49.864;8.656;2023-08-06T07:08:17;4.73;;;1.70;;
5493;SDS011;2769;49.864;8.656;2023-08-06T07:10:46;1.93;;;1.37;;
5493;SDS011;2769;49.864;8.656;2023-08-06T07:13:14;1.60;;;1.50;;
5493;SDS011;2769;49.864;8.656;2023-08-06T07:15:43;3.23;;;1.43;;
5493;SDS011;2769;49.864;8.656;2023-08-06T07:18:12;2.60;;;1.60;;
5493;SDS011;2769;49.864;8.656;2023-08-06T07:20:40;2.10;;;1.73;;
5493;SDS011;2769;49.864;8.656;2023-08-06T07:23:08;3.10;;;1.63;;
5493;SDS011;2769;49.864;8.656;2023-08-06T07:25:36;1.60;;;1.50;;
5493;SDS011;2769;49.864;8.656;2023-08-06T07:28:04;1.90;;;1.80;;
5493;SDS011;2769;49.864;8.656;2023-08-06T07:30:32;3.10;;;1.67;;
5493;SDS011;2769;49.864;8.656;2023-08-06T07:33:00;2.70;;;1.97;;
5493;SDS011;2769;49.864;8.656;2023-08-06T07:35:29;4.23;;;2.17;;
5493;SDS011;2769;49.864;8.656;2023-08-06T07:37:57;3.10;;;1.90;;
5493;SDS011;2769;49.864;8.656;2023-08-06T07:40:25;4.73;;;1.83;;
5493;SDS011;2769;49.864;8.656;2023-08-06T07:42:53;4.93;;;2.60;;
5493;SDS011;2769;49.864;8.656;2023-08-06T07:45:21;4.90;;;1.90;;
5493;SDS011;2769;49.864;8.656;2023-08-06T07:47:49;7.83;;;2.30;;
5493;SDS011;2769;49.864;8.656;2023-08-06T07:50:17;1.97;;;1.80;;
5493;SDS011;2769;49.864;8.656;2023-08-06T07:52:47;3.50;;;2.10;;
5493;SDS011;2769;49.864;8.656;2023-08-06T07:55:15;4.10;;;1.93;;
5493;SDS011;2769;49.864;8.656;2023-08-06T07:57:43;2.97;;;1.90;;
5493;SDS011;2769;49.864;8.656;2023-08-06T08:00:11;4.60;;;2.23;;
5493;SDS011;2769;49.864;8.656;2023-08-06T08:02:40;4.67;;;2.17;;
5493;SDS011;2769;49.864;8.656;2023-08-06T08:05:08;3.70;;;2.00;;
5493;SDS011;2769;49.864;8.656;2023-08-06T08:07:36;3.20;;;1.73;;
5493;SDS011;2769;49.864;8.656;2023-08-06T08:10:06;3.47;;;1.67;;
5493;SDS011;2769;49.864;8.656;2023-08-06T08:12:35;1.90;;;1.63;;
5493;SDS011;2769;49.864;8.656;2023-08-06T08:15:03;3.07;;;2.00;;
5493;SDS011;2769;49.864;8.656;2023-08-06T08:17:32;1.93;;;1.83;;
5493;SDS011;2769;49.864;8.656;2023-08-06T08:20:01;2.03;;;1.83;;
5493;SDS011;2769;49.864;8.656;2023-08-06T08:22:30;2.60;;;1.30;;
5493;SDS011;2769;49.864;8.656;2023-08-06T08:24:58;5.70;;;1.33;;
5493;SDS011;2769;49.864;8.656;2023-08-06T08:27:27;4.20;;;1.43;;
5493;SDS011;2769;49.864;8.656;2023-08-06T08:29:56;1.30;;;1.30;;
5493;SDS011;2769;49.864;8.656;2023-08-06T08:32:24;2.50;;;1.67;;
5493;SDS011;2769;49.864;8.656;2023-08-06T08:34:52;1.47;;;1.30;;
5493;SDS011;2769;49.864;8.656;2023-08-06T08:37:20;1.30;;;1.20;;
5493;SDS011;2769;49.864;8.656;2023-08-06T08:39:48;3.40;;;1.40;;
5493;SDS011;2769;49.864;8.656;2023-08-06T08:42:16;1.60;;;1.07;;
5493;SDS011;2769;49.864;8.656;2023-08-06T08:44:46;1.30;;;1.20;;
5493;SDS011;2769;49.864;8.656;2023-08-06T08:47:15;1.73;;;1.00;;
5493;SDS011;2769;49.864;8.656;2023-08-06T08:49:43;1.07;;;0.97;;
5493;SDS011;2769;49.864;8.656;2023-08-06T08:52:12;2.47;;;1.40;;
5493;SDS011;2769;49.864;8.656;2023-08-06T08:54:42;1.63;;;0.90;;
5493;SDS011;2769;49.864;8.656;2023-08-06T08:57:11;2.20;;;1.00;;
5493;SDS011;2769;49.864;8.656;2023-08-06T08:59:39;2.53;;;1.10;;
5493;SDS011;2769;49.864;8.656;2023-08-06T09:02:08;0.90;;;0.90;;
5493;SDS011;2769;49.864;8.656;2023-08-06T09:04:37;0.80;;;0.80;;
5493;SDS011;2769;49.864;8.656;2023-08-06T09:07:05;3.40;;;1.00;;
5493;SDS011;2769;49.864;8.656;2023-08-06T09:09:35;1.03;;;1.03;;
5493;SDS011;2769;49.864;8.656;2023-08-06T09:12:06;1.13;;;1.00;;
5493;SDS011;2769;49.864;8.656;2023-08-06T09:14:38;1.10;;;1.00;;
5493;SDS011;2769;49.864;8.656;2023-08-06T09:17:07;2.00;;;0.90;;
5493;SDS011;2769;49.864;8.656;2023-08-06T09:19:37;4.90;;;0.90;;
5493;SDS011;2769;49.864;8.656;2023-08-06T09:22:06;3.37;;;0.83;;
5493;SDS011;2769;49.864;8.656;2023-08-06T09:24:39;0.80;;;0.80;;
5493;SDS011;2769;49.864;8.656;2023-08-06T09:27:12;1.00;;;0.90;;
5493;SDS011;2769;49.864;8.656;2023-08-06T09:29:44;0.70;;;0.70;;
5493;SDS011;2769;49.864;8.656;2023-08-06T09:32:14;1.37;;;0.87;;
5493;SDS011;2769;49.864;8.656;2023-08-06T09:34:42;1.00;;;0.80;;
5493;SDS011;2769;49.864;8.656;2023-08-06T09:37:11;1.53;;;0.90;;
5493;SDS011;2769;49.864;8.656;2023-08-06T09:39:39;3.07;;;0.80;;
5493;SDS011;2769;49.864;8.656;2023-08-06T09:42:08;0.70;;;0.70;;
5493;SDS011;2769;49.864;8.656;2023-08-06T09:44:36;0.90;;;0.90;;
5493;SDS011;2769;49.864;8.656;2023-08-06T09:47:08;1.23;;;1.00;;
5493;SDS011;2769;49.864;8.656;2023-08-06T09:49:44;0.80;;;0.80;;
5493;SDS011;2769;49.864;8.656;2023-08-06T09:52:12;0.87;;;0.87;;
5493;SDS011;2769;49.864;8.656;2023-08-06T09:54:42;2.40;;;0.90;;
5493;SDS011;2769;49.864;8.656;2023-08-06T09:57:13;0.80;;;0.80;;
5493;SDS011;2769;49.864;8.656;2023-08-06T09:59:42;0.80;;;0.80;;
5493;SDS011;2769;49.864;8.656;2023-08-06T10:02:14;0.60;;;0.60;;
5493;SDS011;2769;49.864;8.656;2023-08-06T10:04:44;0.90;;;0.90;;
5493;SDS011;2769;49.864;8.656;2023-08-06T10:07:21;0.80;;;0.80;;
5493;SDS011;2769;49.864;8.656;2023-08-06T10:09:50;0.70;;;0.70;;
5493;SDS011;2769;49.864;8.656;2023-08-06T10:12:19;0.70;;;0.70;;
5493;SDS011;2769;49.864;8.656;2023-08-06T10:14:55;0.60;;;0.60;;
5493;SDS011;2769;49.864;8.656;2023-08-06T10:17:27;0.97;;;0.80;;
5493;SDS011;2769;49.864;8.656;2023-08-06T10:20:12;1.23;;;0.70;;
5493;SDS011;2769;49.864;8.656;2023-08-06T10:22:42;0.70;;;0.70;;
5493;SDS011;2769;49.864;8.656;2023-08-06T10:25:13;2.33;;;0.70;;
5493;SDS011;2769;49.864;8.656;2023-08-06T10:27:53;2.23;;;0.60;;
5493;SDS011;2769;49.864;8.656;2023-08-06T10:30:22;0.70;;;0.70;;
5493;SDS011;2769;49.864;8.656;2023-08-06T10:32:52;0.70;;;0.70;;
5493;SDS011;2769;49.864;8.656;2023-08-06T10:35:29;0.83;;;0.83;;
5493;SDS011;2769;49.864;8.656;2023-08-06T10:37:59;0.67;;;0.67;;
5493;SDS011;2769;49.864;8.656;2023-08-06T10:40:30;0.90;;;0.90;;
5493;SDS011;2769;49.864;8.656;2023-08-06T10:42:59;0.73;;;0.73;;
5493;SDS011;2769;49.864;8.656;2023-08-06T10:45:28;0.70;;;0.70;;
5493;SDS011;2769;49.864;8.656;2023-08-06T10:47:57;0.70;;;0.70;;
5493;SDS011;2769;49.864;8.656;2023-08-06T10:50:25;1.90;;;0.70;;
5493;SDS011;2769;49.864;8.656;2023-08-06T10:52:55;0.60;;;0.60;;
5493;SDS011;2769;49.864;8.656;2023-08-06T10:55:23;0.60;;;0.60;;
5493;SDS011;2769;49.864;8.656;2023-08-06T10:57:52;2.20;;;0.70;;
5493;SDS011;2769;49.864;8.656;2023-08-06T11:00:22;0.60;;;0.60;;
5493;SDS011;2769;49.864;8.656;2023-08-06T11:02:51;0.67;;;0.67;;
5493;SDS011;2769;49.864;8.656;2023-08-06T11:05:19;1.23;;;0.60;;
5493;SDS011;2769;49.864;8.656;2023-08-06T11:07:47;0.70;;;0.70;;
5493;SDS011;2769;49.864;8.656;2023-08-06T11:10:19;0.70;;;0.60;;
5493;SDS011;2769;49.864;8.656;2023-08-06T11:12:46;4.87;;;1.10;;
5493;SDS011;2769;49.864;8.656;2023-08-06T11:15:14;0.50;;;0.50;;
5493;SDS011;2769;49.864;8.656;2023-08-06T11:17:43;0.70;;;0.67;;
5493;SDS011;2769;49.864;8.656;2023-08-06T11:20:11;0.60;;;0.60;;
5493;SDS011;2769;49.864;8.656;2023-08-06T11:22:43;0.63;;;0.63;;
5493;SDS011;2769;49.864;8.656;2023-08-06T11:25:11;1.17;;;0.80;;
5493;SDS011;2769;49.864;8.656;2023-08-06T11:27:43;0.80;;;0.80;;
5493;SDS011;2769;49.864;8.656;2023-08-06T11:30:11;0.50;;;0.50;;
5493;SDS011;2769;49.864;8.656;2023-08-06T11:32:45;0.50;;;0.50;;
5493;SDS011;2769;49.864;8.656;2023-08-06T11:35:14;0.53;;;0.53;;
5493;SDS011;2769;49.864;8.656;2023-08-06T11:37:44;0.50;;;0.50;;
5493;SDS011;2769;49.864;8.656;2023-08-06T11:40:13;0.50;;;0.50;;
5493;SDS011;2769;49.864;8.656;2023-08-06T11:42:46;0.60;;;0.60;;
5493;SDS011;2769;49.864;8.656;2023-08-06T11:45:14;0.50;;;0.50;;
5493;SDS011;2769;49.864;8.656;2023-08-06T11:47:42;2.67;;;0.50;;
5493;SDS011;2769;49.864;8.656;2023-08-06T11:50:21;0.80;;;0.50;;
5493;SDS011;2769;49.864;8.656;2023-08-06T11:52:52;0.70;;;0.50;;
5493;SDS011;2769;49.864;8.656;2023-08-06T11:55:22;0.73;;;0.50;;
5493;SDS011;2769;49.864;8.656;2023-08-06T11:57:52;0.50;;;0.50;;
5493;SDS011;2769;49.864;8.656;2023-08-06T12:00:22;0.50;;;0.50;;
5493;SDS011;2769;49.864;8.656;2023-08-06T12:02:51;0.60;;;0.60;;
5493;SDS011;2769;49.864;8.656;2023-08-06T12:05:20;0.60;;;0.60;;
5493;SDS011;2769;49.864;8.656;2023-08-06T12:07:50;0.67;;;0.67;;
5493;SDS011;2769;49.864;8.656;2023-08-06T12:10:19;2.40;;;0.70;;
5493;SDS011;2769;49.864;8.656;2023-08-06T12:12:52;0.50;;;0.50;;
5493;SDS011;2769;49.864;8.656;2023-08-06T12:15:21;0.60;;;0.60;;
5493;SDS011;2769;49.864;8.656;2023-08-06T12:17:49;0.50;;;0.50;;
5493;SDS011;2769;49.864;8.656;2023-08-06T12:20:18;1.90;;;0.70;;
5493;SDS011;2769;49.864;8.656;2023-08-06T12:22:46;0.60;;;0.60;;
5493;SDS011;2769;49.864;8.656;2023-08-06T12:25:14;0.70;;;0.70;;
5493;SDS011;2769;49.864;8.656;2023-08-06T12:27:43;0.70;;;0.70;;
5493;SDS011;2769;49.864;8.656;2023-08-06T12:30:13;1.00;;;0.77;;
5493;SDS011;2769;49.864;8.656;2023-08-06T12:32:41;0.93;;;0.83;;
5493;SDS011;2769;49.864;8.656;2023-08-06T12:35:09;0.70;;;0.70;;
5493;SDS011;2769;49.864;8.656;2023-08-06T12:37:37;1.77;;;0.77;;
5493;SDS011;2769;49.864;8.656;2023-08-06T12:40:07;0.70;;;0.70;;
5493;SDS011;2769;49.864;8.656;2023-08-06T12:42:55;0.80;;;0.80;;
5493;SDS011;2769;49.864;8.656;2023-08-06T12:45:24;0.60;;;0.60;;
5493;SDS011;2769;49.864;8.656;2023-08-06T12:47:52;2.30;;;0.80;;
5493;SDS011;2769;49.864;8.656;2023-08-06T12:50:20;0.63;;;0.63;;
5493;SDS011;2769;49.864;8.656;2023-08-06T12:52:48;1.07;;;0.83;;
5493;SDS011;2769;49.864;8.656;2023-08-06T12:55:16;1.57;;;0.80;;
5493;SDS011;2769;49.864;8.656;2023-08-06T12:57:44;0.70;;;0.70;;
5493;SDS011;2769;49.864;8.656;2023-08-06T13:00:25;0.70;;;0.70;;
5493;SDS011;2769;49.864;8.656;2023-08-06T13:02:53;1.87;;;0.97;;
5493;SDS011;2769;49.864;8.656;2023-08-06T13:05:22;11.53;;;0.80;;
5493;SDS011;2769;49.864;8.656;2023-08-06T13:07:50;0.80;;;0.80;;
5493;SDS011;2769;49.864;8.656;2023-08-06T13:10:18;2.60;;;0.90;;
5493;SDS011;2769;49.864;8.656;2023-08-06T13:12:48;0.80;;;0.80;;
5493;SDS011;2769;49.864;8.656;2023-08-06T13:15:16;1.07;;;0.90;;
5493;SDS011;2769;49.864;8.656;2023-08-06T13:17:48;0.80;;;0.80;;
5493;SDS011;2769;49.864;8.656;2023-08-06T13:20:16;1.07;;;1.00;;
5493;SDS011;2769;49.864;8.656;2023-08-06T13:22:46;0.90;;;0.90;;
5493;SDS011;2769;49.864;8.656;2023-08-06T13:25:17;0.90;;;0.90;;
5493;SDS011;2769;49.864;8.656;2023-08-06T13:27:45;0.80;;;0.80;;
5493;SDS011;2769;49.864;8.656;2023-08-06T13:30:14;2.10;;;0.87;;
5493;SDS011;2769;49.864;8.656;2023-08-06T13:32:43;0.80;;;0.80;;
5493;SDS011;2769;49.864;8.656;2023-08-06T13:35:12;5.63;;;1.00;;
5493;SDS011;2769;49.864;8.656;2023-08-06T13:37:40;1.60;;;0.80;;
5493;SDS011;2769;49.864;8.656;2023-08-06T13:40:08;1.00;;;1.00;;
5493;SDS011;2769;49.864;8.656;2023-08-06T13:42:36;1.03;;;1.03;;
5493;SDS011;2769;49.864;8.656;2023-08-06T13:45:05;0.90;;;0.90;;
5493;SDS011;2769;49.864;8.656;2023-08-06T13:47:33;4.20;;;1.40;;
5493;SDS011;2769;49.864;8.656;2023-08-06T13:50:02;0.70;;;0.70;;
5493;SDS011;2769;49.864;8.656;2023-08-06T13:52:32;1.23;;;0.70;;
5493;SDS011;2769;49.864;8.656;2023-08-06T13:55:01;0.70;;;0.60;;
5493;SDS011;2769;49.864;8.656;2023-08-06T13:57:30;0.60;;;0.60;;
5493;SDS011;2769;49.864;8.656;2023-08-06T13:59:58;0.70;;;0.70;;
5493;SDS011;2769;49.864;8.656;2023-08-06T14:02:26;1.53;;;0.67;;
5493;SDS011;2769;49.864;8.656;2023-08-06T14:04:54;1.67;;;0.70;;
5493;SDS011;2769;49.864;8.656;2023-08-06T14:07:22;5.33;;;0.80;;
5493;SDS011;2769;49.864;8.656;2023-08-06T14:09:52;0.60;;;0.60;;
5493;SDS011;2769;49.864;8.656;2023-08-06T14:12:19;1.00;;;0.67;;
5493;SDS011;2769;49.864;8.656;2023-08-06T14:14:47;1.33;;;0.80;;
5493;SDS011;2769;49.864;8.656;2023-08-06T14:17:16;0.70;;;0.70;;
5493;SDS011;2769;49.864;8.656;2023-08-06T14:19:44;0.80;;;0.80;;
5493;SDS011;2769;49.864;8.656;2023-08-06T14:22:12;2.67;;;0.80;;
5493;SDS011;2769;49.864;8.656;2023-08-06T14:24:40;0.80;;;0.70;;
5493;SDS011;2769;49.864;8.656;2023-08-06T14:27:10;1.17;;;0.60;;
5493;SDS011;2769;49.864;8.656;2023-08-06T14:29:43;0.80;;;0.60;;
5493;SDS011;2769;49.864;8.656;2023-08-06T14:32:11;0.70;;;0.70;;
5493;SDS011;2769;49.864;8.656;2023-08-06T14:34:39;1.37;;;1.00;;
5493;SDS011;2769;49.864;8.656;2023-08-06T14:37:07;0.70;;;0.70;;
5493;SDS011;2769;49.864;8.656;2023-08-06T14:39:35;0.70;;;0.70;;
5493;SDS011;2769;49.864;8.656;2023-08-06T14:42:03;0.70;;;0.70;;
5493;SDS011;2769;49.864;8.656;2023-08-06T14:44:33;1.23;;;0.80;;
5493;SDS011;2769;49.864;8.656;2023-08-06T14:47:01;0.63;;;0.63;;
5493;SDS011;2769;49.864;8.656;2023-08-06T14:49:29;0.63;;;0.63;;
5493;SDS011;2769;49.864;8.656;2023-08-06T14:51:57;2.23;;;0.70;;
5493;SDS011;2769;49.864;8.656;2023-08-06T14:54:26;1.00;;;1.00;;
5493;SDS011;2769;49.864;8.656;2023-08-06T14:56:54;0.60;;;0.60;;
5493;SDS011;2769;49.864;8.656;2023-08-06T14:59:22;0.67;;;0.67;;
5493;SDS011;2769;49.864;8.656;2023-08-06T15:01:54;1.03;;;0.93;;
5493;SDS011;2769;49.864;8.656;2023-08-06T15:04:23;0.83;;;0.60;;
5493;SDS011;2769;49.864;8.656;2023-08-06T15:06:52;1.00;;;0.90;;
5493;SDS011;2769;49.864;8.656;2023-08-06T15:09:22;1.20;;;0.87;;
5493;SDS011;2769;49.864;8.656;2023-08-06T15:11:51;0.90;;;0.70;;
5493;SDS011;2769;49.864;8.656;2023-08-06T15:14:19;0.90;;;0.90;;
5493;SDS011;2769;49.864;8.656;2023-08-06T15:16:47;0.70;;;0.70;;
5493;SDS011;2769;49.864;8.656;2023-08-06T15:19:16;0.80;;;0.80;;
5493;SDS011;2769;49.864;8.656;2023-08-06T15:21:44;0.60;;;0.60;;
5493;SDS011;2769;49.864;8.656;2023-08-06T15:24:12;1.23;;;0.60;;
5493;SDS011;2769;49.864;8.656;2023-08-06T15:26:40;0.70;;;0.70;;